createdAt,value
2018-04-16T00:03:00.544Z,21.70
2018-04-16T00:06:03.087Z,22.33
2018-04-16T00:09:05.721Z,25.03
2018-04-16T00:12:08.401Z,24.10
2018-04-16T00:15:11.263Z,21.23
2018-04-16T00:18:13.889Z,21.57
2018-04-16T00:21:16.470Z,21.93
2018-04-16T00:24:19.113Z,22.13
2018-04-16T00:27:21.641Z,25.20
2018-04-16T00:30:24.237Z,22.93
2018-04-16T00:33:32.178Z,25.97
2018-04-16T00:36:40.240Z,22.00
2018-04-16T00:39:48.371Z,22.23
2018-04-16T00:42:56.472Z,23.07
2018-04-16T00:46:04.448Z,21.53
2018-04-16T00:49:12.472Z,21.20
2018-04-16T00:52:20.646Z,23.27
2018-04-16T00:55:28.636Z,27.10
2018-04-16T00:58:36.857Z,21.97
2018-04-16T01:01:45.080Z,21.93
2018-04-16T01:04:53.111Z,25.87
2018-04-16T01:08:01.203Z,22.03
2018-04-16T01:11:09.423Z,23.03
2018-04-16T01:14:17.679Z,25.80
2018-04-16T01:17:25.944Z,24.07
2018-04-16T01:20:33.995Z,26.17
2018-04-16T01:23:42.051Z,28.53
2018-04-16T01:26:50.086Z,23.13
2018-04-16T01:29:58.117Z,24.80
2018-04-16T01:33:06.303Z,24.73
2018-04-16T01:36:14.405Z,23.50
2018-04-16T01:39:23.067Z,26.87
2018-04-16T01:46:14.886Z,25.73
2018-04-16T01:49:22.975Z,25.63
2018-04-16T01:52:31.184Z,27.97
2018-04-16T01:55:39.181Z,24.93
2018-04-16T02:02:26.540Z,30.97
2018-04-16T02:05:34.599Z,26.97
2018-04-16T02:08:42.610Z,27.90
2018-04-16T02:15:27.927Z,28.30
2018-04-16T02:18:36.068Z,26.10
2018-04-16T02:21:44.129Z,27.90
2018-04-16T02:24:52.182Z,32.37
2018-04-16T02:28:00.344Z,33.83
2018-04-16T02:34:52.575Z,34.13
2018-04-16T02:38:00.659Z,38.83
2018-04-16T02:41:08.706Z,30.90
2018-04-16T02:44:16.773Z,32.10
2018-04-16T02:47:24.999Z,37.70
2018-04-16T02:50:33.977Z,30.63
2018-04-16T02:53:42.188Z,34.40
2018-04-16T02:56:50.396Z,32.40
2018-04-16T02:59:58.572Z,29.63
2018-04-16T03:06:44.897Z,32.10
2018-04-16T03:09:53.027Z,32.97
2018-04-16T03:13:01.216Z,31.03
2018-04-16T03:16:09.404Z,31.13
2018-04-16T03:19:17.467Z,30.63
2018-04-16T03:22:25.598Z,32.63
2018-04-16T03:25:33.864Z,36.73
2018-04-16T03:28:41.946Z,31.93
2018-04-16T03:31:50.075Z,30.73
2018-04-16T03:34:58.242Z,33.10
2018-04-16T03:38:06.488Z,32.73
2018-04-16T03:41:14.479Z,35.53
2018-04-16T03:44:22.641Z,34.57
2018-04-16T03:47:30.822Z,36.40
2018-04-16T03:50:39.073Z,30.73
2018-04-16T03:53:42.358Z,35.17
2018-04-16T03:56:44.916Z,51.87
2018-04-16T03:59:47.456Z,46.30
2018-04-16T04:02:49.998Z,34.83
2018-04-16T04:05:52.596Z,36.77
2018-04-16T04:08:55.164Z,33.40
2018-04-16T04:11:57.720Z,34.77
2018-04-16T04:15:00.261Z,33.30
2018-04-16T04:18:02.901Z,30.70
2018-04-16T04:21:05.462Z,30.93
2018-04-16T04:24:19.819Z,30.33
2018-04-16T04:27:34.148Z,33.93
2018-04-16T04:30:39.213Z,32.70
2018-04-16T04:33:41.756Z,32.80
2018-04-16T04:36:44.329Z,35.23
2018-04-16T04:39:46.934Z,34.93
2018-04-16T04:42:49.514Z,32.03
2018-04-16T04:45:53.144Z,34.57
2018-04-16T04:48:56.920Z,35.83
2018-04-16T04:52:00.348Z,35.07
2018-04-16T04:55:02.954Z,32.70
2018-04-16T04:58:05.606Z,35.93
2018-04-16T05:01:09.005Z,35.43
2018-04-16T05:04:13.625Z,31.97
2018-04-16T05:07:17.039Z,32.67
2018-04-16T05:13:53.546Z,36.60
2018-04-16T05:16:58.788Z,31.73
2018-04-16T05:20:01.399Z,32.53
2018-04-16T05:23:04.107Z,36.90
2018-04-16T05:26:08.879Z,34.03
2018-04-16T05:29:12.277Z,33.23
2018-04-16T05:32:15.210Z,51.73
2018-04-16T05:38:29.438Z,31.37
2018-04-16T05:41:32.028Z,31.70
2018-04-16T05:44:34.559Z,32.33
2018-04-16T05:47:38.283Z,33.27
2018-04-16T05:50:51.120Z,32.50
2018-04-16T05:53:53.699Z,34.67
2018-04-16T05:56:57.135Z,32.20
2018-04-16T06:00:00.913Z,31.70
2018-04-16T06:03:03.591Z,32.80
2018-04-16T06:06:06.150Z,33.30
2018-04-16T06:09:08.681Z,33.33
2018-04-16T06:12:11.292Z,37.60
2018-04-16T06:15:13.822Z,38.63
2018-04-16T06:18:16.373Z,38.60
2018-04-16T06:21:18.953Z,34.87
2018-04-16T06:24:21.488Z,37.80
2018-04-16T06:27:24.078Z,38.23
2018-04-16T06:30:27.376Z,37.10
2018-04-16T06:33:29.990Z,39.17
2018-04-16T06:36:32.586Z,39.77
2018-04-16T06:39:35.223Z,33.07
2018-04-16T06:42:37.823Z,36.43
2018-04-16T06:45:40.476Z,36.07
2018-04-16T06:48:42.995Z,34.53
2018-04-16T06:51:45.572Z,35.47
2018-04-16T06:54:48.394Z,36.67
2018-04-16T06:57:50.910Z,35.10
2018-04-16T07:00:53.429Z,36.10
2018-04-16T07:03:56.926Z,36.50
2018-04-16T07:06:59.655Z,36.90
2018-04-16T07:10:02.627Z,37.77
2018-04-16T07:13:11.292Z,39.50
2018-04-16T07:16:16.713Z,32.27
2018-04-16T07:29:57.736Z,35.33
2018-04-16T07:33:00.295Z,34.20
2018-04-16T07:36:02.837Z,37.70
2018-04-16T07:39:06.338Z,37.30
2018-04-16T07:42:08.856Z,41.93
2018-04-16T07:45:11.371Z,39.23
2018-04-16T07:48:13.892Z,40.50
2018-04-16T07:51:16.430Z,40.17
2018-04-16T07:54:18.957Z,39.47
2018-04-16T07:57:22.077Z,40.53
2018-04-16T08:00:24.646Z,39.53
2018-04-16T08:03:27.205Z,36.20
2018-04-16T08:06:29.686Z,42.83
2018-04-16T08:09:32.207Z,41.40
2018-04-16T08:12:34.779Z,42.30
2018-04-16T08:15:37.657Z,40.57
2018-04-16T08:18:40.161Z,40.83
2018-04-16T08:21:42.701Z,41.33
2018-04-16T08:24:45.216Z,44.37
2018-04-16T08:27:47.711Z,45.30
2018-04-16T08:30:50.213Z,42.03
2018-04-16T08:33:52.750Z,46.53
2018-04-16T08:36:55.301Z,40.67
2018-04-16T08:39:58.687Z,47.30
2018-04-16T08:43:01.257Z,41.30
2018-04-16T08:46:03.790Z,44.40
2018-04-16T08:49:06.363Z,46.77
2018-04-16T08:52:08.904Z,42.13
2018-04-16T08:55:11.633Z,48.37
2018-04-16T08:58:14.284Z,43.63
2018-04-16T09:01:16.817Z,44.70
2018-04-16T09:04:19.390Z,42.60
2018-04-16T09:07:21.920Z,46.57
2018-04-16T09:10:24.634Z,42.53
2018-04-16T09:13:27.173Z,45.23
2018-04-16T09:16:29.719Z,42.63
2018-04-16T09:19:32.345Z,42.73
2018-04-16T09:22:35.798Z,44.80
2018-04-16T09:25:39.060Z,42.13
2018-04-16T09:28:41.619Z,41.90
2018-04-16T09:31:44.152Z,39.20
2018-04-16T09:34:47.401Z,38.80
2018-04-16T09:37:50.032Z,44.33
2018-04-16T09:40:52.589Z,43.13
2018-04-16T09:43:55.138Z,37.83
2018-04-16T09:46:57.639Z,36.00
2018-04-16T09:50:00.196Z,38.53
2018-04-16T09:53:02.735Z,40.43
2018-04-16T09:56:05.350Z,42.30
2018-04-16T09:59:07.907Z,36.93
2018-04-16T10:05:55.019Z,41.27
2018-04-16T10:08:57.554Z,36.83
2018-04-16T10:12:00.141Z,39.70
2018-04-16T10:15:02.673Z,38.63
2018-04-16T10:18:05.206Z,40.47
2018-04-16T10:21:07.806Z,37.03
2018-04-16T10:24:10.391Z,35.97
2018-04-16T10:27:12.977Z,37.80
2018-04-16T10:30:15.572Z,36.93
2018-04-16T10:33:18.087Z,33.60
2018-04-16T10:36:20.612Z,38.07
2018-04-16T10:39:23.224Z,38.60
2018-04-16T10:42:25.964Z,32.33
2018-04-16T10:45:28.533Z,29.53
2018-04-16T10:48:31.055Z,31.47
2018-04-16T10:51:33.651Z,29.67
2018-04-16T10:54:36.209Z,31.87
2018-04-16T10:57:38.774Z,34.23
2018-04-16T11:00:41.342Z,37.60
2018-04-16T11:03:43.901Z,35.47
2018-04-16T11:06:46.423Z,38.17
2018-04-16T11:09:48.943Z,31.03
2018-04-16T11:12:51.447Z,32.17
2018-04-16T11:15:53.975Z,37.37
2018-04-16T11:18:56.512Z,28.90
2018-04-16T11:21:59.032Z,29.03
2018-04-16T11:25:01.596Z,33.80
2018-04-16T11:28:04.126Z,28.77
2018-04-16T11:31:07.599Z,28.63
2018-04-16T11:34:10.158Z,31.60
2018-04-16T11:37:12.727Z,34.57
2018-04-16T11:40:15.437Z,31.63
2018-04-16T11:43:17.947Z,30.03
2018-04-16T11:46:20.461Z,35.73
2018-04-16T11:49:22.977Z,31.37
2018-04-16T11:52:25.531Z,35.40
2018-04-16T11:55:28.081Z,39.07
2018-04-16T11:58:30.594Z,46.00
2018-04-16T12:01:33.393Z,25.77
2018-04-16T12:04:36.057Z,27.30
2018-04-16T12:07:38.531Z,26.50
